createdAt,value
2018-07-13T05:33:29.413Z,99.90
2018-07-13T05:35:58.067Z,99.90
2018-07-13T05:38:27.612Z,99.90
2018-07-13T05:40:56.293Z,99.90
2018-07-13T05:43:25.926Z,99.90
2018-07-13T05:45:54.610Z,99.90
2018-07-13T05:48:23.265Z,99.90
2018-07-13T05:50:53.658Z,99.90
2018-07-13T05:53:22.262Z,99.90
2018-07-13T05:55:52.274Z,99.90
2018-07-13T05:58:21.947Z,99.90
2018-07-13T06:00:50.572Z,99.90
2018-07-13T06:03:19.301Z,99.90
2018-07-13T06:05:48.314Z,99.90
2018-07-13T06:08:16.936Z,99.90
2018-07-13T06:10:46.268Z,99.90
2018-07-13T06:13:15.763Z,99.90
2018-07-13T06:15:44.473Z,99.90
2018-07-13T06:18:13.340Z,99.90
2018-07-13T06:20:41.898Z,99.90
2018-07-13T06:23:10.472Z,99.90
2018-07-13T06:25:39.030Z,99.90
2018-07-13T06:28:07.648Z,99.90
2018-07-13T06:30:36.216Z,99.90
2018-07-13T06:33:05.287Z,99.90
2018-07-13T06:35:33.836Z,99.90
2018-07-13T06:38:02.512Z,99.90
2018-07-13T06:40:31.188Z,99.90
2018-07-13T06:42:59.761Z,99.90
2018-07-13T06:45:28.434Z,99.90
2018-07-13T06:47:57.454Z,99.90
2018-07-13T06:50:26.075Z,99.90
2018-07-13T06:52:54.699Z,99.90
2018-07-13T06:55:23.290Z,99.90
2018-07-13T06:58:03.143Z,99.90
2018-07-13T07:01:03.744Z,99.90
2018-07-13T07:03:33.974Z,99.90
2018-07-13T07:06:08.039Z,99.90
2018-07-13T07:08:38.205Z,99.90
2018-07-13T07:11:07.506Z,99.90
2018-07-13T07:13:38.531Z,99.90
2018-07-13T07:16:07.445Z,99.90
2018-07-13T07:18:36.382Z,99.90
2018-07-13T07:21:05.085Z,99.90
2018-07-13T07:23:34.300Z,99.90
2018-07-13T07:26:03.543Z,99.90
2018-07-13T07:28:32.480Z,99.90
2018-07-13T07:31:02.274Z,99.90
2018-07-13T07:33:30.824Z,99.90
2018-07-13T07:35:59.397Z,99.90
2018-07-13T07:38:28.986Z,99.90
2018-07-13T07:40:57.570Z,99.90
2018-07-13T07:43:26.511Z,99.90
2018-07-13T07:45:55.100Z,99.90
2018-07-13T07:48:23.702Z,99.90
2018-07-13T07:50:52.270Z,99.90
2018-07-13T07:53:20.822Z,99.90
2018-07-13T07:55:50.638Z,99.90
2018-07-13T07:58:19.206Z,99.90
2018-07-13T08:00:48.416Z,99.90
2018-07-13T08:03:17.136Z,99.90
2018-07-13T08:05:45.706Z,99.90
2018-07-13T08:08:14.253Z,99.90
2018-07-13T08:10:43.841Z,99.90
2018-07-13T08:13:12.434Z,99.90
2018-07-13T08:15:41.006Z,99.90
2018-07-13T08:18:09.538Z,99.90
2018-07-13T08:20:42.730Z,99.90
2018-07-13T08:23:11.362Z,99.90
2018-07-13T08:25:40.698Z,99.90
2018-07-13T08:28:09.438Z,99.90
2018-07-13T08:30:53.422Z,99.90
2018-07-13T08:33:21.998Z,99.90
2018-07-13T08:35:50.579Z,99.90
2018-07-13T08:38:20.134Z,99.90
2018-07-13T08:40:49.164Z,99.90
2018-07-13T08:43:17.787Z,99.90
2018-07-13T08:45:46.446Z,99.90
2018-07-13T08:48:15.034Z,99.90
2018-07-13T08:50:43.725Z,99.90
2018-07-13T08:53:12.411Z,99.90
2018-07-13T08:55:41.074Z,99.40
2018-07-13T08:58:10.075Z,98.40
2018-07-13T09:00:38.747Z,98.80
2018-07-13T09:03:08.370Z,98.90
2018-07-13T09:05:37.003Z,98.10
2018-07-13T09:08:05.598Z,97.60
2018-07-13T09:10:35.740Z,98.10
2018-07-13T09:13:04.435Z,98.60
2018-07-13T09:15:33.002Z,96.00
2018-07-13T09:18:01.730Z,96.30
2018-07-13T09:20:30.495Z,96.00
2018-07-13T09:22:59.317Z,96.20
2018-07-13T09:25:29.003Z,94.90
2018-07-13T09:27:58.087Z,94.90
2018-07-13T09:30:26.664Z,93.50
2018-07-13T09:32:57.176Z,93.40
2018-07-13T09:37:54.115Z,92.50
2018-07-13T09:40:22.766Z,92.50
2018-07-13T09:42:51.385Z,92.20
2018-07-13T09:45:19.964Z,91.70
2018-07-13T09:47:48.521Z,92.30
2018-07-13T09:50:17.547Z,92.30
2018-07-13T09:52:46.217Z,92.30
2018-07-13T09:55:15.035Z,91.70
2018-07-13T10:00:12.959Z,91.70
2018-07-13T10:02:41.626Z,92.30
2018-07-13T10:05:10.428Z,92.50
2018-07-13T10:07:39.340Z,93.10
2018-07-13T10:10:08.232Z,91.20
2018-07-13T10:12:36.849Z,92.60
2018-07-13T10:15:05.498Z,92.40
2018-07-13T10:17:37.311Z,92.80
2018-07-13T10:22:35.900Z,91.90
2018-07-13T10:25:05.071Z,92.00
2018-07-13T10:27:35.659Z,92.30
2018-07-13T10:30:05.292Z,91.00
2018-07-13T10:32:34.030Z,91.90
2018-07-13T10:35:03.997Z,91.30
2018-07-13T10:37:32.639Z,91.80
2018-07-13T10:42:29.631Z,88.80
2018-07-13T10:44:58.218Z,88.50
2018-07-13T10:47:27.213Z,88.70
2018-07-13T10:49:55.803Z,85.20
2018-07-13T10:52:24.370Z,84.60
2018-07-13T10:54:55.767Z,84.60
2018-07-13T10:57:24.355Z,80.90
2018-07-13T10:59:54.028Z,81.90
2018-07-13T11:02:22.586Z,80.30
2018-07-13T11:04:51.158Z,80.90
2018-07-13T11:09:47.890Z,76.00
2018-07-13T11:12:17.463Z,76.60
2018-07-13T11:14:47.158Z,73.10
2018-07-13T11:17:15.684Z,71.30
2018-07-13T11:19:44.538Z,74.20
2018-07-13T11:22:13.108Z,76.40
2018-07-13T11:24:41.638Z,75.30
2018-07-13T11:27:11.106Z,77.00
2018-07-13T11:29:39.967Z,74.50
2018-07-13T11:32:08.826Z,75.20
2018-07-13T11:34:38.466Z,73.20
2018-07-13T11:37:08.131Z,72.60
2018-07-13T11:39:37.683Z,73.80
2018-07-13T11:42:06.264Z,76.10
2018-07-13T11:44:35.467Z,78.10
2018-07-13T11:47:04.541Z,76.90
2018-07-13T11:49:33.154Z,76.10
2018-07-13T11:52:02.162Z,75.80
2018-07-13T11:54:30.791Z,75.10
2018-07-13T11:56:59.410Z,72.70
2018-07-13T11:59:28.023Z,69.30
2018-07-13T12:01:56.680Z,63.70
2018-07-13T12:04:25.288Z,60.50
2018-07-13T12:06:53.837Z,57.80
2018-07-13T12:09:22.391Z,55.00
2018-07-13T12:11:50.967Z,54.20
2018-07-13T12:14:19.540Z,50.20
2018-07-13T12:16:48.096Z,50.30
2018-07-13T12:19:16.661Z,50.40
2018-07-13T12:21:45.198Z,53.10
2018-07-13T12:24:13.756Z,55.00
2018-07-13T12:26:42.338Z,52.80
2018-07-13T12:29:10.944Z,53.20
2018-07-13T12:31:39.696Z,50.40
2018-07-13T12:34:08.314Z,50.90
2018-07-13T12:36:36.905Z,51.60
2018-07-13T12:39:06.561Z,50.50
2018-07-13T12:41:41.431Z,53.20
2018-07-13T12:44:16.641Z,50.30
2018-07-13T12:46:45.344Z,53.60
2018-07-13T12:49:14.617Z,52.20
2018-07-13T12:51:43.390Z,51.70
2018-07-13T12:54:12.231Z,49.00
2018-07-13T12:56:40.575Z,48.90
2018-07-13T12:59:09.131Z,52.50
2018-07-13T13:01:37.718Z,54.20
2018-07-13T13:04:06.274Z,53.30
2018-07-13T13:06:34.806Z,53.80
2018-07-13T13:09:04.446Z,51.40
2018-07-13T13:11:33.016Z,48.70
2018-07-13T13:16:29.863Z,48.10
2018-07-13T13:18:58.387Z,48.30
2018-07-13T13:21:26.918Z,48.20
2018-07-13T13:23:55.578Z,48.60
2018-07-13T13:26:24.870Z,45.90
2018-07-13T13:28:53.447Z,45.20
2018-07-13T13:31:22.051Z,48.90
2018-07-13T13:33:51.234Z,47.00
2018-07-13T13:36:19.902Z,50.10
2018-07-13T13:38:49.399Z,50.70
2018-07-13T13:41:17.955Z,50.80
2018-07-13T13:43:46.878Z,52.40
2018-07-13T13:46:16.422Z,53.20
2018-07-13T13:48:44.972Z,55.50
2018-07-13T13:51:14.240Z,51.40
2018-07-13T13:53:43.439Z,53.90
2018-07-13T13:56:12.962Z,54.90
2018-07-13T13:58:41.754Z,54.40
2018-07-13T14:01:10.424Z,55.10
2018-07-13T14:03:39.033Z,57.70
2018-07-13T14:06:07.610Z,58.60
2018-07-13T14:08:36.198Z,57.50
2018-07-13T14:11:04.747Z,58.30
2018-07-13T14:13:34.010Z,55.10
2018-07-13T14:16:03.680Z,54.90
2018-07-13T14:18:32.238Z,57.60
2018-07-13T14:21:00.817Z,54.10
2018-07-13T14:23:29.390Z,53.10
2018-07-13T14:25:57.958Z,53.60
2018-07-13T14:28:26.510Z,51.00
2018-07-13T14:30:55.102Z,50.90
2018-07-13T14:33:23.674Z,53.60
2018-07-13T14:35:52.222Z,54.70
2018-07-13T14:38:20.814Z,53.90
2018-07-13T14:40:50.270Z,51.10
2018-07-13T14:43:18.866Z,49.90
2018-07-13T14:45:47.535Z,49.40
2018-07-13T14:48:16.760Z,52.20
2018-07-13T14:50:45.352Z,52.60
2018-07-13T14:53:14.214Z,52.30
2018-07-13T14:55:42.808Z,54.80
2018-07-13T14:58:11.381Z,52.40
2018-07-13T15:00:39.949Z,54.60
2018-07-13T15:03:08.516Z,56.10
2018-07-13T15:05:37.098Z,57.20
2018-07-13T15:08:05.749Z,56.00
2018-07-13T15:10:34.452Z,57.00
2018-07-13T15:13:03.282Z,57.00
2018-07-13T15:15:31.892Z,57.20
2018-07-13T15:20:40.147Z,58.80
2018-07-13T15:23:09.518Z,59.20
2018-07-13T15:25:38.075Z,59.50
2018-07-13T15:28:06.629Z,59.10
2018-07-13T15:30:35.168Z,58.60
2018-07-13T15:33:04.606Z,56.80
2018-07-13T15:35:33.178Z,55.10
2018-07-13T15:38:01.748Z,56.20
2018-07-13T15:40:30.278Z,56.70
2018-07-13T15:42:59.653Z,59.20
2018-07-13T15:45:28.262Z,59.80
2018-07-13T15:47:57.811Z,61.60
2018-07-13T15:50:26.690Z,61.90
2018-07-13T15:52:55.242Z,60.10
2018-07-13T15:55:28.814Z,60.50
2018-07-13T15:57:57.371Z,60.60
2018-07-13T16:00:27.259Z,61.40
2018-07-13T16:02:55.823Z,61.50
2018-07-13T16:05:24.428Z,60.40
2018-07-13T16:07:53.346Z,59.80
2018-07-13T16:10:21.910Z,60.00
2018-07-13T16:12:50.531Z,63.00
2018-07-13T16:15:19.094Z,60.50
2018-07-13T16:17:47.678Z,63.60
2018-07-13T16:20:16.234Z,63.30
2018-07-13T16:22:44.811Z,63.20
2018-07-13T16:25:13.474Z,64.00
2018-07-13T16:27:42.330Z,65.40
2018-07-13T16:30:11.571Z,63.60
2018-07-13T16:32:40.145Z,62.80
2018-07-13T16:35:09.835Z,60.40
2018-07-13T16:37:38.383Z,60.60
2018-07-13T16:40:06.958Z,62.00
2018-07-13T16:42:35.528Z,59.40
2018-07-13T16:45:06.259Z,56.70
2018-07-13T16:47:41.519Z,57.90
2018-07-13T16:50:10.203Z,57.60
2018-07-13T16:52:39.792Z,56.10
2018-07-13T16:55:08.369Z,58.20
2018-07-13T16:57:36.898Z,59.90
2018-07-13T17:00:06.058Z,60.50
2018-07-13T17:02:34.689Z,61.00
2018-07-13T17:05:04.242Z,63.10
2018-07-13T17:07:32.811Z,64.90
2018-07-13T17:10:01.415Z,64.70
2018-07-13T17:12:29.998Z,66.10
2018-07-13T17:14:58.578Z,67.60
2018-07-13T17:17:27.162Z,69.00
2018-07-13T17:19:56.714Z,70.50
2018-07-13T17:22:25.967Z,72.70
2018-07-13T17:24:55.277Z,73.80
2018-07-13T17:27:25.289Z,73.40
2018-07-13T17:29:53.870Z,75.10
2018-07-13T17:32:22.464Z,75.10
2018-07-13T17:34:51.020Z,77.10
2018-07-13T17:37:21.539Z,71.40
2018-07-13T17:39:50.170Z,74.40
2018-07-13T17:42:18.858Z,72.00
2018-07-13T17:44:47.542Z,73.70
2018-07-13T17:47:16.151Z,72.60
2018-07-13T17:49:44.834Z,74.00
2018-07-13T17:52:13.390Z,72.90
2018-07-13T17:57:10.531Z,74.50
2018-07-13T17:59:39.103Z,74.10
2018-07-13T18:02:07.786Z,74.30
2018-07-13T18:04:37.355Z,75.10
2018-07-13T18:07:06.554Z,76.30
2018-07-13T18:09:35.174Z,77.30
2018-07-13T18:12:03.739Z,76.30
2018-07-13T18:14:32.316Z,77.70
2018-07-13T18:17:00.928Z,77.80
2018-07-13T18:19:30.306Z,76.60
2018-07-13T18:21:59.126Z,77.70
2018-07-13T18:24:28.428Z,80.40
2018-07-13T18:26:57.631Z,81.90
2018-07-13T18:29:26.570Z,83.10
2018-07-13T18:31:55.173Z,83.80
2018-07-13T18:34:23.702Z,86.30
2018-07-13T18:36:52.635Z,88.30
2018-07-13T18:39:21.278Z,89.50
2018-07-13T18:41:49.915Z,88.90
2018-07-13T18:44:18.562Z,86.50
2018-07-13T18:46:48.207Z,88.10
2018-07-13T18:49:16.790Z,88.70
2018-07-13T18:51:45.339Z,89.20
2018-07-13T18:54:15.047Z,89.70
2018-07-13T18:59:11.812Z,91.20
2018-07-13T19:01:40.381Z,92.90
2018-07-13T19:04:08.976Z,93.70
2018-07-13T19:06:37.565Z,93.60
2018-07-13T19:09:07.729Z,94.00
2018-07-13T19:11:36.260Z,95.10
2018-07-13T19:14:04.830Z,96.50
2018-07-13T19:16:33.416Z,97.20
2018-07-13T19:19:02.085Z,98.00
2018-07-13T19:21:30.658Z,99.00
2018-07-13T19:23:59.265Z,98.60
2018-07-13T19:26:27.814Z,97.90
2018-07-13T19:28:56.418Z,96.50
2018-07-13T19:31:25.017Z,96.20
2018-07-13T19:33:53.651Z,97.30
2018-07-13T19:36:22.270Z,98.70
2018-07-13T19:38:50.818Z,98.90
2018-07-13T19:41:19.810Z,98.20
2018-07-13T19:43:48.476Z,98.10
2018-07-13T19:46:17.101Z,97.60
2018-07-13T19:48:45.657Z,97.40
2018-07-13T19:51:14.505Z,97.50
2018-07-13T19:53:43.186Z,97.30
2018-07-13T19:56:12.092Z,97.10
2018-07-13T19:58:40.726Z,97.00
2018-07-13T20:01:10.444Z,96.90
2018-07-13T20:03:39.092Z,97.90
2018-07-13T20:06:07.702Z,99.00
2018-07-13T20:08:36.362Z,99.50
2018-07-13T20:11:05.032Z,99.90
2018-07-13T20:13:33.615Z,99.90
2018-07-13T20:16:02.216Z,99.90
2018-07-13T20:18:30.843Z,99.90
2018-07-13T20:20:59.458Z,99.90
2018-07-13T20:23:28.010Z,99.90
2018-07-13T20:25:56.577Z,99.90
2018-07-13T20:28:26.750Z,99.90
2018-07-13T20:30:55.313Z,99.90
2018-07-13T20:33:25.396Z,99.90
2018-07-13T20:35:54.047Z,99.90
2018-07-13T20:38:22.643Z,99.90
2018-07-13T20:40:52.194Z,99.90
2018-07-13T20:43:20.774Z,99.90
2018-07-13T20:45:49.390Z,99.90
2018-07-13T20:48:18.576Z,99.90
2018-07-13T20:50:47.738Z,99.90
2018-07-13T20:53:16.327Z,99.70
2018-07-13T20:55:44.883Z,98.90
2018-07-13T20:58:13.878Z,98.60
2018-07-13T21:00:42.823Z,98.40
2018-07-13T21:03:11.387Z,98.50
2018-07-13T21:05:39.981Z,98.90
2018-07-13T21:08:08.567Z,98.80
2018-07-13T21:10:40.358Z,99.70
2018-07-13T21:13:08.974Z,99.90
2018-07-13T21:15:44.184Z,99.90
2018-07-13T21:18:12.908Z,99.90
2018-07-13T21:20:41.470Z,99.90
2018-07-13T21:23:11.649Z,99.80
2018-07-13T21:25:40.539Z,99.90
2018-07-13T21:28:09.140Z,99.90
2018-07-13T21:30:37.753Z,99.90
2018-07-13T21:33:06.325Z,99.90
2018-07-13T21:35:34.935Z,99.90
2018-07-13T21:38:05.474Z,99.90
2018-07-13T21:40:34.389Z,99.90
2018-07-13T21:43:02.997Z,99.90
2018-07-13T21:45:31.554Z,99.90
2018-07-13T21:48:01.435Z,99.90
2018-07-13T21:50:30.062Z,99.90
2018-07-13T21:52:58.618Z,99.90
2018-07-13T21:55:27.259Z,99.90
2018-07-13T21:57:55.935Z,99.90
2018-07-13T22:00:24.592Z,99.90
2018-07-13T22:02:53.224Z,99.90
2018-07-13T22:05:21.839Z,99.90
2018-07-13T22:07:50.683Z,99.90
2018-07-13T22:10:20.163Z,99.90
2018-07-13T22:12:48.743Z,99.90
2018-07-13T22:15:18.579Z,99.90
2018-07-13T22:17:47.198Z,99.90
2018-07-13T22:20:16.584Z,99.90
2018-07-13T22:22:45.149Z,99.90
2018-07-13T22:25:13.879Z,99.90
2018-07-13T22:27:43.742Z,99.90
2018-07-13T22:30:12.386Z,99.90
2018-07-13T22:32:41.010Z,99.90
2018-07-13T22:35:09.563Z,99.90
2018-07-13T22:37:38.125Z,99.90
2018-07-13T22:40:07.634Z,99.90
2018-07-13T22:42:37.075Z,99.90
2018-07-13T22:45:07.147Z,99.90
2018-07-13T22:47:35.847Z,99.90
2018-07-13T22:50:04.721Z,99.90
2018-07-13T22:52:33.655Z,99.90
2018-07-13T22:55:03.593Z,99.90
2018-07-13T22:57:32.712Z,99.90
2018-07-13T23:00:05.643Z,99.90
2018-07-13T23:17:38.618Z,99.90
2018-07-13T23:20:07.319Z,99.90
2018-07-13T23:22:38.623Z,99.90
2018-07-13T23:25:08.022Z,99.90
2018-07-13T23:30:17.578Z,99.90
2018-07-13T23:32:50.819Z,99.90
2018-07-13T23:35:24.669Z,99.90
2018-07-13T23:37:59.925Z,99.90
2018-07-13T23:40:35.465Z,99.90
2018-07-13T23:43:09.294Z,99.90
2018-07-13T23:45:40.863Z,99.90
2018-07-13T23:48:12.679Z,99.90
2018-07-13T23:50:44.226Z,99.90
2018-07-13T23:53:12.930Z,99.90
2018-07-13T23:55:41.532Z,99.90
2018-07-13T23:58:10.093Z,99.90
